sensor_id;sensor_type;location;lat;lon;timestamp;P1;durP1;ratioP1;P2;durP2;ratioP2
5333;SDS011;2689;50.954;7.116;2023-04-03T00:00:37;3.40;;;2.30;;
5333;SDS011;2689;50.954;7.116;2023-04-03T00:03:04;2.63;;;2.10;;
5333;SDS011;2689;50.954;7.116;2023-04-03T00:05:31;6.03;;;2.17;;
5333;SDS011;2689;50.954;7.116;2023-04-03T00:07:59;3.60;;;2.20;;
5333;SDS011;2689;50.954;7.116;2023-04-03T00:10:26;4.00;;;2.00;;
5333;SDS011;2689;50.954;7.116;2023-04-03T00:12:54;4.37;;;2.03;;
5333;SDS011;2689;50.954;7.116;2023-04-03T00:15:20;3.77;;;2.20;;
5333;SDS011;2689;50.954;7.116;2023-04-03T00:17:47;3.03;;;2.43;;
5333;SDS011;2689;50.954;7.116;2023-04-03T00:20:14;3.27;;;2.37;;
5333;SDS011;2689;50.954;7.116;2023-04-03T00:22:41;4.80;;;2.40;;
5333;SDS011;2689;50.954;7.116;2023-04-03T00:25:12;3.27;;;2.53;;
5333;SDS011;2689;50.954;7.116;2023-04-03T00:27:41;3.60;;;2.23;;
5333;SDS011;2689;50.954;7.116;2023-04-03T00:30:09;3.63;;;2.40;;
5333;SDS011;2689;50.954;7.116;2023-04-03T00:32:39;2.90;;;2.33;;
5333;SDS011;2689;50.954;7.116;2023-04-03T00:35:06;3.77;;;2.17;;
5333;SDS011;2689;50.954;7.116;2023-04-03T00:37:33;7.33;;;2.23;;
5333;SDS011;2689;50.954;7.116;2023-04-03T00:40:00;4.17;;;2.13;;
5333;SDS011;2689;50.954;7.116;2023-04-03T00:42:28;2.80;;;1.60;;
5333;SDS011;2689;50.954;7.116;2023-04-03T00:47:59;4.87;;;2.07;;
5333;SDS011;2689;50.954;7.116;2023-04-03T00:50:27;3.53;;;2.10;;
5333;SDS011;2689;50.954;7.116;2023-04-03T00:52:55;2.93;;;2.40;;
5333;SDS011;2689;50.954;7.116;2023-04-03T00:55:23;5.10;;;2.93;;
5333;SDS011;2689;50.954;7.116;2023-04-03T00:57:51;4.47;;;2.33;;
5333;SDS011;2689;50.954;7.116;2023-04-03T01:00:21;3.03;;;2.03;;
5333;SDS011;2689;50.954;7.116;2023-04-03T01:02:49;4.20;;;2.23;;
5333;SDS011;2689;50.954;7.116;2023-04-03T01:05:17;4.50;;;2.27;;
5333;SDS011;2689;50.954;7.116;2023-04-03T01:07:45;2.40;;;2.00;;
5333;SDS011;2689;50.954;7.116;2023-04-03T01:10:14;4.10;;;2.73;;
5333;SDS011;2689;50.954;7.116;2023-04-03T01:12:43;3.93;;;2.37;;
5333;SDS011;2689;50.954;7.116;2023-04-03T01:15:13;5.43;;;2.67;;
5333;SDS011;2689;50.954;7.116;2023-04-03T01:17:42;3.67;;;2.50;;
5333;SDS011;2689;50.954;7.116;2023-04-03T01:23:13;2.90;;;1.87;;
5333;SDS011;2689;50.954;7.116;2023-04-03T01:25:50;3.00;;;2.07;;
5333;SDS011;2689;50.954;7.116;2023-04-03T01:28:19;4.27;;;2.67;;
5333;SDS011;2689;50.954;7.116;2023-04-03T01:30:50;3.83;;;2.07;;
5333;SDS011;2689;50.954;7.116;2023-04-03T01:33:24;6.00;;;2.50;;
5333;SDS011;2689;50.954;7.116;2023-04-03T01:35:50;5.20;;;2.50;;
5333;SDS011;2689;50.954;7.116;2023-04-03T01:38:17;2.90;;;2.37;;
5333;SDS011;2689;50.954;7.116;2023-04-03T01:40:44;5.50;;;2.40;;
5333;SDS011;2689;50.954;7.116;2023-04-03T01:43:11;3.67;;;1.90;;
5333;SDS011;2689;50.954;7.116;2023-04-03T01:45:37;4.60;;;2.30;;
5333;SDS011;2689;50.954;7.116;2023-04-03T01:48:04;4.07;;;2.13;;
5333;SDS011;2689;50.954;7.116;2023-04-03T01:50:33;4.30;;;2.50;;
5333;SDS011;2689;50.954;7.116;2023-04-03T01:52:59;4.30;;;2.80;;
5333;SDS011;2689;50.954;7.116;2023-04-03T01:55:26;2.80;;;2.10;;
5333;SDS011;2689;50.954;7.116;2023-04-03T01:57:53;3.53;;;2.17;;
5333;SDS011;2689;50.954;7.116;2023-04-03T02:00:20;4.43;;;3.13;;
5333;SDS011;2689;50.954;7.116;2023-04-03T02:02:47;5.50;;;2.60;;
5333;SDS011;2689;50.954;7.116;2023-04-03T02:05:13;4.17;;;2.30;;
5333;SDS011;2689;50.954;7.116;2023-04-03T02:07:42;5.03;;;2.50;;
5333;SDS011;2689;50.954;7.116;2023-04-03T02:10:08;6.90;;;2.90;;
5333;SDS011;2689;50.954;7.116;2023-04-03T02:12:37;3.07;;;2.53;;
5333;SDS011;2689;50.954;7.116;2023-04-03T02:15:04;3.27;;;2.43;;
5333;SDS011;2689;50.954;7.116;2023-04-03T02:17:31;3.60;;;2.50;;
5333;SDS011;2689;50.954;7.116;2023-04-03T02:19:58;2.63;;;2.20;;
5333;SDS011;2689;50.954;7.116;2023-04-03T02:22:25;3.03;;;2.53;;
5333;SDS011;2689;50.954;7.116;2023-04-03T02:24:53;2.73;;;2.30;;
5333;SDS011;2689;50.954;7.116;2023-04-03T02:27:20;3.70;;;2.97;;
5333;SDS011;2689;50.954;7.116;2023-04-03T02:29:47;3.33;;;2.60;;
5333;SDS011;2689;50.954;7.116;2023-04-03T02:32:13;2.80;;;2.60;;
5333;SDS011;2689;50.954;7.116;2023-04-03T02:34:40;5.50;;;2.70;;
5333;SDS011;2689;50.954;7.116;2023-04-03T02:37:07;5.43;;;2.90;;
5333;SDS011;2689;50.954;7.116;2023-04-03T02:39:34;3.90;;;2.60;;
5333;SDS011;2689;50.954;7.116;2023-04-03T02:42:02;2.33;;;2.03;;
5333;SDS011;2689;50.954;7.116;2023-04-03T02:44:29;2.97;;;2.67;;
5333;SDS011;2689;50.954;7.116;2023-04-03T02:46:56;3.97;;;2.70;;
5333;SDS011;2689;50.954;7.116;2023-04-03T02:49:23;5.73;;;2.80;;
5333;SDS011;2689;50.954;7.116;2023-04-03T02:51:49;2.77;;;2.40;;
5333;SDS011;2689;50.954;7.116;2023-04-03T02:54:16;3.83;;;2.53;;
5333;SDS011;2689;50.954;7.116;2023-04-03T02:56:43;5.33;;;2.83;;
5333;SDS011;2689;50.954;7.116;2023-04-03T02:59:11;3.63;;;2.80;;
5333;SDS011;2689;50.954;7.116;2023-04-03T03:01:38;5.67;;;2.70;;
5333;SDS011;2689;50.954;7.116;2023-04-03T03:04:05;3.77;;;2.90;;
5333;SDS011;2689;50.954;7.116;2023-04-03T03:06:32;6.47;;;3.50;;
5333;SDS011;2689;50.954;7.116;2023-04-03T03:08:58;5.97;;;3.03;;
5333;SDS011;2689;50.954;7.116;2023-04-03T03:11:25;5.30;;;3.00;;
5333;SDS011;2689;50.954;7.116;2023-04-03T03:13:52;5.80;;;3.53;;
5333;SDS011;2689;50.954;7.116;2023-04-03T03:16:20;3.07;;;2.77;;
5333;SDS011;2689;50.954;7.116;2023-04-03T03:18:49;5.70;;;3.00;;
5333;SDS011;2689;50.954;7.116;2023-04-03T03:21:15;4.10;;;2.93;;
5333;SDS011;2689;50.954;7.116;2023-04-03T03:23:42;4.40;;;2.90;;
5333;SDS011;2689;50.954;7.116;2023-04-03T03:26:10;4.63;;;2.80;;
5333;SDS011;2689;50.954;7.116;2023-04-03T03:28:37;4.33;;;2.93;;
5333;SDS011;2689;50.954;7.116;2023-04-03T03:31:05;7.27;;;2.93;;
5333;SDS011;2689;50.954;7.116;2023-04-03T03:33:34;5.13;;;3.17;;
5333;SDS011;2689;50.954;7.116;2023-04-03T03:36:01;6.20;;;3.40;;
5333;SDS011;2689;50.954;7.116;2023-04-03T03:38:28;5.10;;;2.80;;
5333;SDS011;2689;50.954;7.116;2023-04-03T03:40:55;5.40;;;2.90;;
5333;SDS011;2689;50.954;7.116;2023-04-03T03:43:22;4.00;;;2.87;;
5333;SDS011;2689;50.954;7.116;2023-04-03T03:45:50;3.20;;;2.73;;
5333;SDS011;2689;50.954;7.116;2023-04-03T03:48:17;4.97;;;2.80;;
5333;SDS011;2689;50.954;7.116;2023-04-03T03:50:46;4.97;;;2.87;;
5333;SDS011;2689;50.954;7.116;2023-04-03T03:53:13;4.23;;;2.60;;
5333;SDS011;2689;50.954;7.116;2023-04-03T03:55:40;4.70;;;2.60;;
5333;SDS011;2689;50.954;7.116;2023-04-03T03:58:07;5.47;;;2.30;;
5333;SDS011;2689;50.954;7.116;2023-04-03T04:00:34;4.43;;;2.70;;
5333;SDS011;2689;50.954;7.116;2023-04-03T04:03:01;3.13;;;2.43;;
5333;SDS011;2689;50.954;7.116;2023-04-03T04:05:28;4.00;;;2.70;;
5333;SDS011;2689;50.954;7.116;2023-04-03T04:07:56;3.40;;;2.37;;
5333;SDS011;2689;50.954;7.116;2023-04-03T04:10:23;5.77;;;2.40;;
5333;SDS011;2689;50.954;7.116;2023-04-03T04:12:50;5.47;;;3.20;;
5333;SDS011;2689;50.954;7.116;2023-04-03T04:15:17;2.20;;;1.90;;
5333;SDS011;2689;50.954;7.116;2023-04-03T04:17:44;2.90;;;1.97;;
5333;SDS011;2689;50.954;7.116;2023-04-03T04:20:10;3.27;;;2.17;;
5333;SDS011;2689;50.954;7.116;2023-04-03T04:22:37;3.20;;;2.57;;
5333;SDS011;2689;50.954;7.116;2023-04-03T04:25:06;3.80;;;2.10;;
5333;SDS011;2689;50.954;7.116;2023-04-03T04:27:33;3.23;;;2.63;;
5333;SDS011;2689;50.954;7.116;2023-04-03T04:29:59;3.60;;;2.60;;
5333;SDS011;2689;50.954;7.116;2023-04-03T04:32:27;4.07;;;2.67;;
5333;SDS011;2689;50.954;7.116;2023-04-03T04:34:54;5.10;;;2.30;;
5333;SDS011;2689;50.954;7.116;2023-04-03T04:37:23;4.93;;;2.23;;
5333;SDS011;2689;50.954;7.116;2023-04-03T04:39:50;2.93;;;2.10;;
5333;SDS011;2689;50.954;7.116;2023-04-03T04:42:18;4.03;;;2.30;;
5333;SDS011;2689;50.954;7.116;2023-04-03T04:44:45;4.90;;;3.20;;
5333;SDS011;2689;50.954;7.116;2023-04-03T04:47:11;6.10;;;2.50;;
5333;SDS011;2689;50.954;7.116;2023-04-03T04:49:38;4.77;;;2.63;;
5333;SDS011;2689;50.954;7.116;2023-04-03T04:52:05;4.53;;;2.60;;
5333;SDS011;2689;50.954;7.116;2023-04-03T04:54:32;6.07;;;2.70;;
5333;SDS011;2689;50.954;7.116;2023-04-03T04:56:59;2.70;;;2.17;;
5333;SDS011;2689;50.954;7.116;2023-04-03T04:59:27;4.07;;;2.23;;
5333;SDS011;2689;50.954;7.116;2023-04-03T05:01:55;4.57;;;2.90;;
5333;SDS011;2689;50.954;7.116;2023-04-03T05:04:22;3.70;;;2.40;;
5333;SDS011;2689;50.954;7.116;2023-04-03T05:06:49;4.50;;;2.73;;
5333;SDS011;2689;50.954;7.116;2023-04-03T05:09:16;4.23;;;2.07;;
5333;SDS011;2689;50.954;7.116;2023-04-03T05:11:44;5.63;;;2.40;;
5333;SDS011;2689;50.954;7.116;2023-04-03T05:14:11;9.80;;;2.50;;
5333;SDS011;2689;50.954;7.116;2023-04-03T05:16:39;3.83;;;2.00;;
5333;SDS011;2689;50.954;7.116;2023-04-03T05:19:06;5.07;;;2.30;;
5333;SDS011;2689;50.954;7.116;2023-04-03T05:21:33;3.97;;;2.40;;
5333;SDS011;2689;50.954;7.116;2023-04-03T05:24:00;3.20;;;2.20;;
5333;SDS011;2689;50.954;7.116;2023-04-03T05:26:28;10.53;;;2.47;;
5333;SDS011;2689;50.954;7.116;2023-04-03T05:28:55;5.80;;;2.27;;
5333;SDS011;2689;50.954;7.116;2023-04-03T05:31:22;6.77;;;2.10;;
5333;SDS011;2689;50.954;7.116;2023-04-03T05:33:50;4.37;;;2.30;;
5333;SDS011;2689;50.954;7.116;2023-04-03T05:36:17;8.83;;;2.47;;
5333;SDS011;2689;50.954;7.116;2023-04-03T05:38:44;2.97;;;1.87;;
5333;SDS011;2689;50.954;7.116;2023-04-03T05:41:10;4.03;;;2.40;;
5333;SDS011;2689;50.954;7.116;2023-04-03T05:43:37;2.83;;;1.90;;
5333;SDS011;2689;50.954;7.116;2023-04-03T05:46:06;6.37;;;2.20;;
5333;SDS011;2689;50.954;7.116;2023-04-03T05:48:35;5.80;;;2.30;;
5333;SDS011;2689;50.954;7.116;2023-04-03T05:51:04;8.03;;;2.10;;
5333;SDS011;2689;50.954;7.116;2023-04-03T05:53:32;4.53;;;2.00;;
5333;SDS011;2689;50.954;7.116;2023-04-03T05:56:01;6.03;;;2.53;;
5333;SDS011;2689;50.954;7.116;2023-04-03T05:58:28;4.90;;;2.30;;
5333;SDS011;2689;50.954;7.116;2023-04-03T06:00:55;3.47;;;1.97;;
5333;SDS011;2689;50.954;7.116;2023-04-03T06:03:22;7.40;;;2.23;;
5333;SDS011;2689;50.954;7.116;2023-04-03T06:05:49;2.60;;;2.10;;
5333;SDS011;2689;50.954;7.116;2023-04-03T06:08:17;3.27;;;1.90;;
5333;SDS011;2689;50.954;7.116;2023-04-03T06:10:44;8.23;;;2.50;;
5333;SDS011;2689;50.954;7.116;2023-04-03T06:13:11;4.20;;;2.30;;
5333;SDS011;2689;50.954;7.116;2023-04-03T06:15:38;3.10;;;1.90;;
5333;SDS011;2689;50.954;7.116;2023-04-03T06:18:05;4.17;;;1.83;;
5333;SDS011;2689;50.954;7.116;2023-04-03T06:20:33;2.87;;;1.90;;
5333;SDS011;2689;50.954;7.116;2023-04-03T06:23:00;3.80;;;2.00;;
5333;SDS011;2689;50.954;7.116;2023-04-03T06:25:28;2.50;;;1.90;;
5333;SDS011;2689;50.954;7.116;2023-04-03T06:27:56;4.30;;;1.80;;
5333;SDS011;2689;50.954;7.116;2023-04-03T06:30:23;3.87;;;2.20;;
5333;SDS011;2689;50.954;7.116;2023-04-03T06:32:50;2.80;;;1.60;;
5333;SDS011;2689;50.954;7.116;2023-04-03T06:35:17;2.90;;;1.97;;
5333;SDS011;2689;50.954;7.116;2023-04-03T06:37:44;2.93;;;1.53;;
5333;SDS011;2689;50.954;7.116;2023-04-03T06:40:12;4.83;;;2.20;;
5333;SDS011;2689;50.954;7.116;2023-04-03T06:42:46;5.23;;;1.90;;
5333;SDS011;2689;50.954;7.116;2023-04-03T06:48:24;4.57;;;2.20;;
5333;SDS011;2689;50.954;7.116;2023-04-03T06:50:51;2.30;;;1.50;;
5333;SDS011;2689;50.954;7.116;2023-04-03T06:53:18;5.40;;;1.90;;
5333;SDS011;2689;50.954;7.116;2023-04-03T06:55:45;3.60;;;2.10;;
5333;SDS011;2689;50.954;7.116;2023-04-03T06:58:14;2.03;;;1.60;;
5333;SDS011;2689;50.954;7.116;2023-04-03T07:04:04;4.40;;;2.10;;
5333;SDS011;2689;50.954;7.116;2023-04-03T07:06:30;4.77;;;2.07;;
5333;SDS011;2689;50.954;7.116;2023-04-03T07:08:58;3.60;;;1.60;;
5333;SDS011;2689;50.954;7.116;2023-04-03T07:11:25;2.83;;;1.73;;
5333;SDS011;2689;50.954;7.116;2023-04-03T07:13:54;5.60;;;1.90;;
5333;SDS011;2689;50.954;7.116;2023-04-03T07:16:21;5.47;;;2.30;;
5333;SDS011;2689;50.954;7.116;2023-04-03T07:18:48;4.47;;;1.90;;
5333;SDS011;2689;50.954;7.116;2023-04-03T07:21:15;2.20;;;1.70;;
5333;SDS011;2689;50.954;7.116;2023-04-03T07:23:41;2.00;;;1.70;;
5333;SDS011;2689;50.954;7.116;2023-04-03T07:26:08;1.93;;;1.53;;
5333;SDS011;2689;50.954;7.116;2023-04-03T07:28:35;3.80;;;2.00;;
5333;SDS011;2689;50.954;7.116;2023-04-03T07:31:06;2.30;;;1.80;;
5333;SDS011;2689;50.954;7.116;2023-04-03T07:33:36;3.47;;;2.17;;
5333;SDS011;2689;50.954;7.116;2023-04-03T07:36:03;4.17;;;1.93;;
5333;SDS011;2689;50.954;7.116;2023-04-03T07:38:32;3.40;;;1.60;;
5333;SDS011;2689;50.954;7.116;2023-04-03T07:40:59;3.70;;;1.60;;
5333;SDS011;2689;50.954;7.116;2023-04-03T07:43:26;2.90;;;1.87;;
5333;SDS011;2689;50.954;7.116;2023-04-03T07:45:52;2.30;;;1.43;;
5333;SDS011;2689;50.954;7.116;2023-04-03T07:48:21;5.63;;;1.80;;
5333;SDS011;2689;50.954;7.116;2023-04-03T07:50:50;2.50;;;1.60;;
5333;SDS011;2689;50.954;7.116;2023-04-03T07:53:17;2.60;;;1.50;;
5333;SDS011;2689;50.954;7.116;2023-04-03T07:55:45;3.63;;;1.57;;
5333;SDS011;2689;50.954;7.116;2023-04-03T07:58:14;1.90;;;1.60;;
5333;SDS011;2689;50.954;7.116;2023-04-03T08:00:43;3.73;;;2.13;;
5333;SDS011;2689;50.954;7.116;2023-04-03T08:03:10;3.90;;;1.70;;
5333;SDS011;2689;50.954;7.116;2023-04-03T08:05:39;3.63;;;2.23;;
5333;SDS011;2689;50.954;7.116;2023-04-03T08:08:07;2.30;;;1.60;;
5333;SDS011;2689;50.954;7.116;2023-04-03T08:10:34;3.90;;;1.83;;
5333;SDS011;2689;50.954;7.116;2023-04-03T08:13:02;5.10;;;1.50;;
5333;SDS011;2689;50.954;7.116;2023-04-03T08:15:29;3.60;;;1.60;;
5333;SDS011;2689;50.954;7.116;2023-04-03T08:17:56;6.27;;;2.30;;
5333;SDS011;2689;50.954;7.116;2023-04-03T08:20:23;9.57;;;2.27;;
5333;SDS011;2689;50.954;7.116;2023-04-03T08:22:52;2.87;;;1.60;;
5333;SDS011;2689;50.954;7.116;2023-04-03T08:25:18;4.40;;;1.77;;
5333;SDS011;2689;50.954;7.116;2023-04-03T08:27:45;3.83;;;1.70;;
5333;SDS011;2689;50.954;7.116;2023-04-03T08:30:12;5.00;;;1.70;;
5333;SDS011;2689;50.954;7.116;2023-04-03T08:32:39;2.67;;;1.40;;
5333;SDS011;2689;50.954;7.116;2023-04-03T08:35:08;5.13;;;1.77;;
5333;SDS011;2689;50.954;7.116;2023-04-03T08:37:35;2.97;;;1.60;;
5333;SDS011;2689;50.954;7.116;2023-04-03T08:40:05;3.70;;;1.47;;
5333;SDS011;2689;50.954;7.116;2023-04-03T08:42:38;3.37;;;1.60;;
5333;SDS011;2689;50.954;7.116;2023-04-03T08:45:13;2.50;;;1.30;;
5333;SDS011;2689;50.954;7.116;2023-04-03T08:47:46;3.13;;;1.60;;
5333;SDS011;2689;50.954;7.116;2023-04-03T08:50:19;2.90;;;1.60;;
5333;SDS011;2689;50.954;7.116;2023-04-03T08:52:49;2.27;;;1.30;;
5333;SDS011;2689;50.954;7.116;2023-04-03T08:55:22;2.90;;;1.27;;
5333;SDS011;2689;50.954;7.116;2023-04-03T08:57:53;3.63;;;1.60;;
5333;SDS011;2689;50.954;7.116;2023-04-03T09:00:27;2.90;;;1.43;;
5333;SDS011;2689;50.954;7.116;2023-04-03T09:02:57;4.13;;;1.57;;
5333;SDS011;2689;50.954;7.116;2023-04-03T09:05:29;3.33;;;1.50;;
5333;SDS011;2689;50.954;7.116;2023-04-03T09:08:06;3.57;;;2.03;;
5333;SDS011;2689;50.954;7.116;2023-04-03T09:10:42;5.73;;;1.70;;
5333;SDS011;2689;50.954;7.116;2023-04-03T09:13:10;4.30;;;1.67;;
5333;SDS011;2689;50.954;7.116;2023-04-03T09:15:46;4.20;;;1.87;;
5333;SDS011;2689;50.954;7.116;2023-04-03T09:18:13;3.83;;;1.83;;
5333;SDS011;2689;50.954;7.116;2023-04-03T09:20:46;3.20;;;1.60;;
5333;SDS011;2689;50.954;7.116;2023-04-03T09:23:24;4.67;;;1.63;;
5333;SDS011;2689;50.954;7.116;2023-04-03T09:25:56;4.40;;;1.57;;
5333;SDS011;2689;50.954;7.116;2023-04-03T09:28:29;3.77;;;1.73;;
5333;SDS011;2689;50.954;7.116;2023-04-03T09:30:58;4.50;;;1.50;;
5333;SDS011;2689;50.954;7.116;2023-04-03T09:33:26;3.30;;;1.30;;
5333;SDS011;2689;50.954;7.116;2023-04-03T09:35:55;2.90;;;1.63;;
5333;SDS011;2689;50.954;7.116;2023-04-03T09:38:22;3.97;;;1.20;;
5333;SDS011;2689;50.954;7.116;2023-04-03T09:40:50;2.63;;;1.20;;
5333;SDS011;2689;50.954;7.116;2023-04-03T09:43:30;3.23;;;1.60;;
5333;SDS011;2689;50.954;7.116;2023-04-03T09:48:57;4.53;;;1.30;;
5333;SDS011;2689;50.954;7.116;2023-04-03T09:51:25;2.30;;;0.87;;
5333;SDS011;2689;50.954;7.116;2023-04-03T09:53:53;3.77;;;1.77;;
5333;SDS011;2689;50.954;7.116;2023-04-03T09:56:22;3.10;;;1.57;;
5333;SDS011;2689;50.954;7.116;2023-04-03T09:59:04;3.97;;;1.20;;
5333;SDS011;2689;50.954;7.116;2023-04-03T10:01:35;2.03;;;1.10;;
5333;SDS011;2689;50.954;7.116;2023-04-03T10:04:04;4.37;;;1.50;;
5333;SDS011;2689;50.954;7.116;2023-04-03T10:06:34;2.63;;;1.10;;
5333;SDS011;2689;50.954;7.116;2023-04-03T10:09:03;1.87;;;1.10;;
5333;SDS011;2689;50.954;7.116;2023-04-03T10:11:32;3.27;;;1.53;;
5333;SDS011;2689;50.954;7.116;2023-04-03T10:14:01;2.10;;;0.90;;
5333;SDS011;2689;50.954;7.116;2023-04-03T10:16:32;2.30;;;1.10;;
5333;SDS011;2689;50.954;7.116;2023-04-03T10:19:25;3.23;;;1.20;;
5333;SDS011;2689;50.954;7.116;2023-04-03T10:22:04;1.70;;;0.70;;
5333;SDS011;2689;50.954;7.116;2023-04-03T10:24:39;2.30;;;1.40;;
5333;SDS011;2689;50.954;7.116;2023-04-03T10:27:17;2.33;;;1.20;;
5333;SDS011;2689;50.954;7.116;2023-04-03T10:29:51;2.43;;;0.90;;
5333;SDS011;2689;50.954;7.116;2023-04-03T10:32:31;2.23;;;1.17;;
5333;SDS011;2689;50.954;7.116;2023-04-03T10:35:11;4.40;;;1.50;;
5333;SDS011;2689;50.954;7.116;2023-04-03T10:37:49;5.30;;;1.47;;
5333;SDS011;2689;50.954;7.116;2023-04-03T10:40:28;1.70;;;1.07;;
5333;SDS011;2689;50.954;7.116;2023-04-03T10:43:02;2.70;;;1.13;;
5333;SDS011;2689;50.954;7.116;2023-04-03T10:45:37;3.33;;;1.50;;
5333;SDS011;2689;50.954;7.116;2023-04-03T10:48:19;4.37;;;1.57;;
5333;SDS011;2689;50.954;7.116;2023-04-03T10:51:09;2.43;;;1.20;;
5333;SDS011;2689;50.954;7.116;2023-04-03T10:53:52;1.97;;;1.47;;
5333;SDS011;2689;50.954;7.116;2023-04-03T10:56:25;2.60;;;1.23;;
5333;SDS011;2689;50.954;7.116;2023-04-03T10:58:58;3.40;;;1.50;;
5333;SDS011;2689;50.954;7.116;2023-04-03T11:01:39;2.50;;;1.17;;
5333;SDS011;2689;50.954;7.116;2023-04-03T11:04:10;2.70;;;1.17;;
5333;SDS011;2689;50.954;7.116;2023-04-03T11:06:39;4.77;;;1.20;;
5333;SDS011;2689;50.954;7.116;2023-04-03T11:09:13;2.23;;;1.40;;
5333;SDS011;2689;50.954;7.116;2023-04-03T11:11:45;2.40;;;1.13;;
5333;SDS011;2689;50.954;7.116;2023-04-03T11:14:14;2.53;;;1.20;;
5333;SDS011;2689;50.954;7.116;2023-04-03T11:16:51;3.93;;;2.13;;
5333;SDS011;2689;50.954;7.116;2023-04-03T11:19:27;2.80;;;1.43;;
5333;SDS011;2689;50.954;7.116;2023-04-03T11:22:05;2.80;;;1.30;;
5333;SDS011;2689;50.954;7.116;2023-04-03T11:24:51;1.63;;;0.87;;
5333;SDS011;2689;50.954;7.116;2023-04-03T11:27:25;2.80;;;1.63;;
5333;SDS011;2689;50.954;7.116;2023-04-03T11:29:57;2.50;;;1.50;;
5333;SDS011;2689;50.954;7.116;2023-04-03T11:32:37;2.60;;;1.20;;
5333;SDS011;2689;50.954;7.116;2023-04-03T11:35:18;3.43;;;1.60;;
5333;SDS011;2689;50.954;7.116;2023-04-03T11:37:47;2.80;;;1.30;;
5333;SDS011;2689;50.954;7.116;2023-04-03T11:40:21;22.53;;;7.43;;
5333;SDS011;2689;50.954;7.116;2023-04-03T11:42:52;16.40;;;7.60;;
5333;SDS011;2689;50.954;7.116;2023-04-03T11:45:34;6.70;;;3.10;;
5333;SDS011;2689;50.954;7.116;2023-04-03T11:48:04;6.73;;;4.10;;
5333;SDS011;2689;50.954;7.116;2023-04-03T11:50:43;10.90;;;5.37;;
5333;SDS011;2689;50.954;7.116;2023-04-03T11:53:28;10.50;;;6.03;;
5333;SDS011;2689;50.954;7.116;2023-04-03T11:56:01;4.60;;;2.40;;
5333;SDS011;2689;50.954;7.116;2023-04-03T11:58:43;4.23;;;2.63;;
5333;SDS011;2689;50.954;7.116;2023-04-03T12:01:47;3.93;;;2.47;;
5333;SDS011;2689;50.954;7.116;2023-04-03T12:04:17;3.40;;;1.90;;
5333;SDS011;2689;50.954;7.116;2023-04-03T12:06:49;2.97;;;1.57;;
5333;SDS011;2689;50.954;7.116;2023-04-03T12:12:55;3.53;;;1.63;;
5333;SDS011;2689;50.954;7.116;2023-04-03T12:18:37;2.83;;;1.30;;
5333;SDS011;2689;50.954;7.116;2023-04-03T12:21:08;2.30;;;1.27;;
5333;SDS011;2689;50.954;7.116;2023-04-03T12:23:36;2.80;;;1.63;;
5333;SDS011;2689;50.954;7.116;2023-04-03T12:26:21;2.20;;;1.30;;
5333;SDS011;2689;50.954;7.116;2023-04-03T12:28:51;2.23;;;1.30;;
5333;SDS011;2689;50.954;7.116;2023-04-03T12:31:20;1.67;;;1.00;;
5333;SDS011;2689;50.954;7.116;2023-04-03T12:33:57;2.20;;;1.20;;
5333;SDS011;2689;50.954;7.116;2023-04-03T12:36:39;2.03;;;0.90;;
5333;SDS011;2689;50.954;7.116;2023-04-03T12:39:18;3.33;;;1.20;;
5333;SDS011;2689;50.954;7.116;2023-04-03T12:42:02;2.20;;;1.40;;
5333;SDS011;2689;50.954;7.116;2023-04-03T12:44:44;3.10;;;1.00;;
5333;SDS011;2689;50.954;7.116;2023-04-03T12:47:25;4.50;;;1.07;;
5333;SDS011;2689;50.954;7.116;2023-04-03T12:49:54;1.90;;;0.87;;
5333;SDS011;2689;50.954;7.116;2023-04-03T12:52:29;2.20;;;1.00;;
5333;SDS011;2689;50.954;7.116;2023-04-03T12:55:00;3.40;;;1.23;;
5333;SDS011;2689;50.954;7.116;2023-04-03T12:57:29;2.60;;;1.00;;
5333;SDS011;2689;50.954;7.116;2023-04-03T12:59:57;1.87;;;0.97;;
5333;SDS011;2689;50.954;7.116;2023-04-03T13:02:25;1.97;;;1.00;;
5333;SDS011;2689;50.954;7.116;2023-04-03T13:04:54;2.03;;;1.20;;
5333;SDS011;2689;50.954;7.116;2023-04-03T13:07:24;2.70;;;1.40;;
5333;SDS011;2689;50.954;7.116;2023-04-03T13:12:46;3.57;;;1.17;;
5333;SDS011;2689;50.954;7.116;2023-04-03T13:15:16;3.67;;;1.77;;
5333;SDS011;2689;50.954;7.116;2023-04-03T13:17:44;4.50;;;2.07;;
5333;SDS011;2689;50.954;7.116;2023-04-03T13:20:14;2.30;;;1.10;;
5333;SDS011;2689;50.954;7.116;2023-04-03T13:22:47;2.63;;;1.40;;
5333;SDS011;2689;50.954;7.116;2023-04-03T13:25:17;2.73;;;1.30;;
5333;SDS011;2689;50.954;7.116;2023-04-03T13:27:45;2.30;;;1.20;;
5333;SDS011;2689;50.954;7.116;2023-04-03T13:30:20;5.53;;;1.10;;
5333;SDS011;2689;50.954;7.116;2023-04-03T13:32:50;3.60;;;1.40;;
5333;SDS011;2689;50.954;7.116;2023-04-03T13:35:25;3.00;;;1.60;;
5333;SDS011;2689;50.954;7.116;2023-04-03T13:37:59;3.17;;;1.40;;
5333;SDS011;2689;50.954;7.116;2023-04-03T13:40:27;9.33;;;1.50;;
5333;SDS011;2689;50.954;7.116;2023-04-03T13:42:58;2.40;;;1.20;;
5333;SDS011;2689;50.954;7.116;2023-04-03T13:45:27;2.13;;;1.33;;
5333;SDS011;2689;50.954;7.116;2023-04-03T13:48:07;2.27;;;1.40;;
5333;SDS011;2689;50.954;7.116;2023-04-03T13:50:50;2.20;;;1.23;;
5333;SDS011;2689;50.954;7.116;2023-04-03T13:53:26;3.00;;;1.30;;
5333;SDS011;2689;50.954;7.116;2023-04-03T13:55:55;2.40;;;1.27;;
5333;SDS011;2689;50.954;7.116;2023-04-03T13:58:25;2.93;;;1.40;;
5333;SDS011;2689;50.954;7.116;2023-04-03T14:00:53;2.23;;;1.50;;
5333;SDS011;2689;50.954;7.116;2023-04-03T14:03:23;2.90;;;1.10;;
5333;SDS011;2689;50.954;7.116;2023-04-03T14:05:52;5.00;;;1.40;;
5333;SDS011;2689;50.954;7.116;2023-04-03T14:08:19;3.00;;;1.60;;
5333;SDS011;2689;50.954;7.116;2023-04-03T14:10:48;1.97;;;1.20;;
5333;SDS011;2689;50.954;7.116;2023-04-03T14:13:17;3.70;;;2.23;;
5333;SDS011;2689;50.954;7.116;2023-04-03T14:15:47;2.27;;;1.40;;
5333;SDS011;2689;50.954;7.116;2023-04-03T14:18:16;3.07;;;1.50;;
5333;SDS011;2689;50.954;7.116;2023-04-03T14:20:44;2.70;;;1.27;;
5333;SDS011;2689;50.954;7.116;2023-04-03T14:23:11;4.27;;;1.97;;
5333;SDS011;2689;50.954;7.116;2023-04-03T14:25:38;2.30;;;1.23;;
5333;SDS011;2689;50.954;7.116;2023-04-03T14:28:12;4.87;;;1.30;;
5333;SDS011;2689;50.954;7.116;2023-04-03T14:30:42;2.03;;;1.30;;
5333;SDS011;2689;50.954;7.116;2023-04-03T14:33:10;3.77;;;1.40;;
5333;SDS011;2689;50.954;7.116;2023-04-03T14:35:40;2.43;;;1.30;;
5333;SDS011;2689;50.954;7.116;2023-04-03T14:38:12;2.53;;;1.50;;
5333;SDS011;2689;50.954;7.116;2023-04-03T14:40:49;4.57;;;1.60;;
5333;SDS011;2689;50.954;7.116;2023-04-03T14:43:19;2.63;;;1.40;;
5333;SDS011;2689;50.954;7.116;2023-04-03T14:45:46;3.07;;;1.83;;
5333;SDS011;2689;50.954;7.116;2023-04-03T14:48:15;2.60;;;1.83;;
5333;SDS011;2689;50.954;7.116;2023-04-03T14:50:45;5.40;;;2.23;;
5333;SDS011;2689;50.954;7.116;2023-04-03T14:53:13;4.20;;;2.63;;
5333;SDS011;2689;50.954;7.116;2023-04-03T14:55:41;5.60;;;2.00;;
5333;SDS011;2689;50.954;7.116;2023-04-03T14:58:12;2.70;;;1.63;;
5333;SDS011;2689;50.954;7.116;2023-04-03T15:00:42;4.30;;;1.70;;
5333;SDS011;2689;50.954;7.116;2023-04-03T15:03:12;6.70;;;2.97;;
5333;SDS011;2689;50.954;7.116;2023-04-03T15:05:41;4.03;;;2.40;;
5333;SDS011;2689;50.954;7.116;2023-04-03T15:08:13;3.33;;;1.67;;
5333;SDS011;2689;50.954;7.116;2023-04-03T15:10:45;3.93;;;2.13;;
5333;SDS011;2689;50.954;7.116;2023-04-03T15:13:12;4.33;;;2.10;;
5333;SDS011;2689;50.954;7.116;2023-04-03T15:15:39;3.90;;;2.40;;
5333;SDS011;2689;50.954;7.116;2023-04-03T15:18:10;2.70;;;2.00;;
5333;SDS011;2689;50.954;7.116;2023-04-03T15:20:41;5.97;;;2.60;;
5333;SDS011;2689;50.954;7.116;2023-04-03T15:23:08;7.33;;;2.20;;
5333;SDS011;2689;50.954;7.116;2023-04-03T15:25:36;2.83;;;1.83;;
5333;SDS011;2689;50.954;7.116;2023-04-03T15:28:03;4.63;;;2.13;;
5333;SDS011;2689;50.954;7.116;2023-04-03T15:30:31;4.73;;;2.50;;
5333;SDS011;2689;50.954;7.116;2023-04-03T15:32:59;4.57;;;2.20;;
5333;SDS011;2689;50.954;7.116;2023-04-03T15:35:25;6.00;;;2.10;;
5333;SDS011;2689;50.954;7.116;2023-04-03T15:37:52;16.03;;;4.67;;
5333;SDS011;2689;50.954;7.116;2023-04-03T15:40:19;16.47;;;5.13;;
5333;SDS011;2689;50.954;7.116;2023-04-03T15:42:46;24.60;;;10.40;;
5333;SDS011;2689;50.954;7.116;2023-04-03T15:45:12;9.73;;;4.60;;
5333;SDS011;2689;50.954;7.116;2023-04-03T15:47:39;4.80;;;2.80;;
5333;SDS011;2689;50.954;7.116;2023-04-03T15:50:09;4.90;;;2.40;;
5333;SDS011;2689;50.954;7.116;2023-04-03T15:52:36;5.30;;;2.83;;
5333;SDS011;2689;50.954;7.116;2023-04-03T15:55:03;8.70;;;4.07;;